createdAt,value
2018-12-31T00:01:21.252Z,102278.70
2018-12-31T00:03:48.397Z,102284.01
2018-12-31T00:06:15.398Z,102282.95
2018-12-31T00:08:42.883Z,102290.43
2018-12-31T00:11:09.938Z,102293.38
2018-12-31T00:13:36.822Z,102281.41
2018-12-31T00:16:04.005Z,102289.12
2018-12-31T00:18:32.412Z,102287.37
2018-12-31T00:20:59.581Z,102295.41
2018-12-31T00:23:26.515Z,102304.83
2018-12-31T00:25:53.790Z,102305.38
2018-12-31T00:28:21.461Z,102323.53
2018-12-31T00:30:48.547Z,102318.69
2018-12-31T00:33:15.677Z,102314.49
2018-12-31T00:35:42.678Z,102313.10
2018-12-31T00:38:09.716Z,102318.09
2018-12-31T00:40:36.994Z,102321.37
2018-12-31T00:43:04.582Z,102319.38
2018-12-31T00:45:31.978Z,102315.68
2018-12-31T00:47:58.659Z,102310.41
2018-12-31T00:50:26.975Z,102318.95
2018-12-31T00:52:54.046Z,102321.12
2018-12-31T00:55:21.728Z,102332.16
2018-12-31T00:57:49.691Z,102326.44
2018-12-31T01:00:17.273Z,102332.91
2018-12-31T01:02:44.054Z,102324.41
2018-12-31T01:05:10.724Z,102324.27
2018-12-31T01:07:38.308Z,102326.77
2018-12-31T01:10:05.206Z,102334.97
2018-12-31T01:12:31.900Z,102338.31
2018-12-31T01:14:59.370Z,102337.80
2018-12-31T01:17:26.682Z,102334.97
2018-12-31T01:19:53.730Z,102333.73
2018-12-31T01:22:20.425Z,102331.02
2018-12-31T01:24:47.354Z,102334.61
2018-12-31T01:27:14.659Z,102326.11
2018-12-31T01:29:41.436Z,102327.45
2018-12-31T01:32:08.530Z,102334.57
2018-12-31T01:34:35.885Z,102331.93
2018-12-31T01:37:03.125Z,102332.67
2018-12-31T01:39:30.198Z,102333.59
2018-12-31T01:41:56.886Z,102334.17
2018-12-31T01:44:24.239Z,102322.63
2018-12-31T01:46:51.426Z,102309.06
2018-12-31T01:49:19.353Z,102309.61
2018-12-31T01:51:46.152Z,102308.14
2018-12-31T01:54:13.616Z,102313.45
2018-12-31T01:56:40.311Z,102309.61
2018-12-31T01:59:08.427Z,102310.04
2018-12-31T02:01:35.118Z,102311.84
2018-12-31T02:04:02.164Z,102311.37
2018-12-31T02:06:28.878Z,102313.45
2018-12-31T02:08:56.338Z,102322.03
2018-12-31T02:11:23.876Z,102324.48
2018-12-31T02:13:51.838Z,102321.26
2018-12-31T02:16:20.014Z,102321.30
2018-12-31T02:18:47.510Z,102325.92
2018-12-31T02:21:18.849Z,102318.37
2018-12-31T02:23:46.239Z,102325.48
2018-12-31T02:26:13.718Z,102323.42
2018-12-31T02:28:42.167Z,102321.52
2018-12-31T02:31:08.917Z,102322.91
2018-12-31T02:33:35.811Z,102322.63
2018-12-31T02:36:03.486Z,102340.72
2018-12-31T02:38:31.420Z,102329.80
2018-12-31T02:40:59.019Z,102329.41
2018-12-31T02:43:26.755Z,102326.84
2018-12-31T02:45:53.669Z,102324.27
2018-12-31T02:48:20.828Z,102319.95
2018-12-31T02:50:48.160Z,102330.25
2018-12-31T02:53:15.502Z,102329.15
2018-12-31T02:55:42.313Z,102328.58
2018-12-31T02:58:09.862Z,102315.95
2018-12-31T03:00:36.895Z,102321.85
2018-12-31T03:03:04.274Z,102314.05
2018-12-31T03:05:31.395Z,102323.80
2018-12-31T03:07:58.339Z,102320.42
2018-12-31T03:10:26.514Z,102318.00
2018-12-31T03:12:53.686Z,102317.86
2018-12-31T03:15:20.597Z,102318.92
2018-12-31T03:17:47.504Z,102322.98
2018-12-31T03:20:14.482Z,102322.98
2018-12-31T03:22:41.523Z,102331.34
2018-12-31T03:25:09.167Z,102343.81
2018-12-31T03:27:36.981Z,102343.30
2018-12-31T03:30:04.555Z,102346.38
2018-12-31T03:32:31.836Z,102347.08
2018-12-31T03:34:58.839Z,102347.77
2018-12-31T03:37:26.304Z,102345.02
2018-12-31T03:39:53.492Z,102348.36
2018-12-31T03:42:20.610Z,102351.04
2018-12-31T03:44:47.719Z,102342.16
2018-12-31T03:47:15.312Z,102347.04
2018-12-31T03:49:42.296Z,102350.20
2018-12-31T03:52:09.176Z,102344.18
2018-12-31T03:54:36.215Z,102340.44
2018-12-31T03:57:03.465Z,102336.70
2018-12-31T03:59:38.114Z,102343.01
2018-12-31T04:02:05.309Z,102327.69
2018-12-31T04:04:33.017Z,102328.20
2018-12-31T04:06:59.803Z,102318.70
2018-12-31T04:09:26.719Z,102314.64
2018-12-31T04:11:54.210Z,102310.89
2018-12-31T04:14:21.566Z,102305.61
2018-12-31T04:16:48.761Z,102308.00
2018-12-31T04:19:15.682Z,102310.49
2018-12-31T04:21:43.031Z,102321.27
2018-12-31T04:24:09.964Z,102324.56
2018-12-31T04:26:36.907Z,102324.16
2018-12-31T04:29:03.930Z,102330.25
2018-12-31T04:31:30.623Z,102332.19
2018-12-31T04:33:58.013Z,102338.27
2018-12-31T04:36:32.935Z,102327.02
2018-12-31T04:39:16.112Z,102335.20
2018-12-31T04:41:43.207Z,102332.70
2018-12-31T04:44:10.271Z,102325.63
2018-12-31T04:46:38.543Z,102321.67
2018-12-31T04:49:05.246Z,102335.42
2018-12-31T04:51:32.746Z,102339.45
2018-12-31T04:54:04.906Z,102342.37
2018-12-31T04:56:32.012Z,102337.11
2018-12-31T04:58:59.101Z,102346.41
2018-12-31T05:01:27.070Z,102346.93
2018-12-31T05:03:55.291Z,102353.83
2018-12-31T05:06:23.869Z,102356.69
2018-12-31T05:08:52.374Z,102361.23
2018-12-31T05:11:21.836Z,102345.80
2018-12-31T05:13:50.291Z,102340.81
2018-12-31T05:16:17.725Z,102344.18
2018-12-31T05:18:47.990Z,102345.10
2018-12-31T05:21:15.196Z,102344.91
2018-12-31T05:23:41.979Z,102338.47
2018-12-31T05:26:09.348Z,102340.62
2018-12-31T05:28:37.251Z,102347.38
2018-12-31T05:31:04.506Z,102344.09
2018-12-31T05:33:32.186Z,102350.52
2018-12-31T05:36:00.152Z,102350.44
2018-12-31T05:38:26.835Z,102350.05
2018-12-31T05:40:54.765Z,102353.44
2018-12-31T05:43:22.031Z,102354.84
2018-12-31T05:45:49.449Z,102357.27
2018-12-31T05:48:16.622Z,102349.13
2018-12-31T05:50:43.878Z,102342.87
2018-12-31T05:53:10.596Z,102345.19
2018-12-31T05:55:38.443Z,102340.09
2018-12-31T05:58:05.228Z,102342.39
2018-12-31T06:00:33.017Z,102345.14
2018-12-31T06:03:00.222Z,102351.17
2018-12-31T06:05:27.491Z,102354.13
2018-12-31T06:07:54.731Z,102357.30
2018-12-31T06:10:22.336Z,102360.49
2018-12-31T06:12:49.026Z,102352.05
2018-12-31T06:15:16.829Z,102352.46
2018-12-31T06:17:44.335Z,102344.44
2018-12-31T06:20:11.021Z,102349.53
2018-12-31T06:22:37.717Z,102347.03
2018-12-31T06:25:04.929Z,102355.82
2018-12-31T06:27:32.650Z,102355.12
2018-12-31T06:30:00.257Z,102351.70
2018-12-31T06:32:32.582Z,102354.80
2018-12-31T06:35:00.181Z,102366.03
2018-12-31T06:37:27.693Z,102369.41
2018-12-31T06:39:54.958Z,102373.61
2018-12-31T06:42:21.653Z,102368.80
2018-12-31T06:44:48.338Z,102370.98
2018-12-31T06:47:15.029Z,102380.59
2018-12-31T06:49:41.712Z,102384.20
2018-12-31T06:52:08.370Z,102384.56
2018-12-31T06:54:36.565Z,102383.92
2018-12-31T06:57:06.471Z,102388.27
2018-12-31T06:59:33.381Z,102392.84
2018-12-31T07:02:05.614Z,102387.91
2018-12-31T07:04:32.683Z,102386.00
2018-12-31T07:06:59.742Z,102387.02
2018-12-31T07:09:27.165Z,102388.69
2018-12-31T07:11:54.457Z,102391.22
2018-12-31T07:14:21.098Z,102393.72
2018-12-31T07:16:48.095Z,102400.94
2018-12-31T07:19:14.757Z,102406.20
2018-12-31T07:21:41.963Z,102407.27
2018-12-31T07:24:09.884Z,102409.25
2018-12-31T07:26:37.316Z,102411.61
2018-12-31T07:29:05.102Z,102412.67
2018-12-31T07:31:32.567Z,102415.17
2018-12-31T07:33:59.705Z,102412.86
2018-12-31T07:36:26.753Z,102418.08
2018-12-31T07:38:54.309Z,102416.33
2018-12-31T07:41:21.449Z,102419.19
2018-12-31T07:43:49.582Z,102420.48
2018-12-31T07:46:16.242Z,102421.27
2018-12-31T07:48:42.905Z,102415.30
2018-12-31T07:51:09.874Z,102409.95
2018-12-31T07:53:36.542Z,102420.27
2018-12-31T07:56:03.668Z,102414.25
2018-12-31T07:58:31.199Z,102409.57
2018-12-31T08:00:58.527Z,102418.41
2018-12-31T08:03:26.109Z,102421.52
2018-12-31T08:05:53.477Z,102421.12
2018-12-31T08:08:20.153Z,102427.13
2018-12-31T08:10:50.465Z,102427.24
2018-12-31T08:13:17.487Z,102428.25
2018-12-31T08:15:45.251Z,102432.47
2018-12-31T08:18:11.947Z,102427.69
2018-12-31T08:20:38.890Z,102418.99
2018-12-31T08:23:07.587Z,102422.18
2018-12-31T08:25:34.771Z,102418.23
2018-12-31T08:28:05.662Z,102417.34
2018-12-31T08:30:32.330Z,102422.01
2018-12-31T08:32:59.934Z,102421.78
2018-12-31T08:35:26.966Z,102425.80
2018-12-31T08:37:55.142Z,102429.16
2018-12-31T08:40:21.823Z,102430.04
2018-12-31T08:42:49.015Z,102431.34
2018-12-31T08:45:15.689Z,102435.28
2018-12-31T08:47:43.711Z,102433.17
2018-12-31T08:50:10.703Z,102433.64
2018-12-31T08:52:39.047Z,102434.94
2018-12-31T08:55:06.629Z,102439.25
2018-12-31T08:57:38.074Z,102429.09
2018-12-31T09:00:05.374Z,102433.94
2018-12-31T09:02:32.613Z,102435.84
2018-12-31T09:04:59.286Z,102429.45
2018-12-31T09:07:25.969Z,102428.11
2018-12-31T09:09:53.181Z,102429.84
2018-12-31T09:12:20.118Z,102431.77
2018-12-31T09:14:47.457Z,102435.16
2018-12-31T09:17:14.390Z,102439.41
2018-12-31T09:19:41.539Z,102434.55
2018-12-31T09:22:08.632Z,102432.78
2018-12-31T09:24:35.768Z,102428.17
2018-12-31T09:27:03.027Z,102433.48
2018-12-31T09:29:30.165Z,102437.41
2018-12-31T09:31:56.927Z,102430.44
2018-12-31T09:34:24.374Z,102427.24
2018-12-31T09:36:51.219Z,102427.00
2018-12-31T09:39:18.122Z,102423.95
2018-12-31T09:41:45.171Z,102419.46
2018-12-31T09:44:12.169Z,102422.79
2018-12-31T09:46:39.581Z,102423.90
2018-12-31T09:49:06.948Z,102418.62
2018-12-31T09:51:34.271Z,102419.17
2018-12-31T09:54:02.075Z,102412.61
2018-12-31T09:56:28.780Z,102414.07
2018-12-31T09:58:55.864Z,102411.57
2018-12-31T10:01:23.318Z,102407.65
2018-12-31T10:03:50.784Z,102404.78
2018-12-31T10:06:17.949Z,102401.89
2018-12-31T10:08:49.230Z,102406.66
2018-12-31T10:11:13.728Z,102406.09
2018-12-31T10:13:46.243Z,102404.48
2018-12-31T10:16:13.293Z,102416.09
2018-12-31T10:18:46.573Z,102413.03
2018-12-31T10:21:13.622Z,102408.97
2018-12-31T10:23:41.257Z,102407.86
2018-12-31T10:26:09.029Z,102395.73
2018-12-31T10:28:37.194Z,102396.05
2018-12-31T10:31:05.717Z,102400.85
2018-12-31T10:33:33.166Z,102389.00
2018-12-31T10:35:59.890Z,102388.04
2018-12-31T10:38:27.141Z,102396.67
2018-12-31T10:40:55.011Z,102384.89
2018-12-31T10:43:22.587Z,102376.69
2018-12-31T10:45:49.557Z,102377.81
2018-12-31T10:48:16.720Z,102378.19
2018-12-31T10:50:44.655Z,102368.76
2018-12-31T10:53:11.647Z,102376.37
2018-12-31T10:55:39.465Z,102384.89
2018-12-31T10:58:08.040Z,102380.31
2018-12-31T11:00:35.199Z,102378.75
2018-12-31T11:03:02.316Z,102384.20
2018-12-31T11:05:29.271Z,102385.20
2018-12-31T11:07:56.955Z,102396.88
2018-12-31T11:10:24.216Z,102390.14
2018-12-31T11:12:51.275Z,102388.52
2018-12-31T11:15:18.292Z,102381.20
2018-12-31T11:17:45.952Z,102376.63
2018-12-31T11:20:13.512Z,102370.69
2018-12-31T11:22:41.683Z,102375.88
2018-12-31T11:25:09.036Z,102371.77
2018-12-31T11:27:36.999Z,102372.59
2018-12-31T11:30:04.657Z,102359.78
2018-12-31T11:32:31.805Z,102350.38
2018-12-31T11:34:58.465Z,102349.70
2018-12-31T11:37:25.119Z,102351.77
2018-12-31T11:39:52.347Z,102348.77
2018-12-31T11:42:19.372Z,102345.95
2018-12-31T11:44:46.038Z,102343.02
2018-12-31T11:47:13.038Z,102346.03
2018-12-31T11:49:40.218Z,102343.64
2018-12-31T11:52:06.907Z,102345.88
2018-12-31T11:54:33.594Z,102340.52
2018-12-31T11:57:00.388Z,102342.27
2018-12-31T11:59:27.093Z,102343.02
2018-12-31T12:01:55.662Z,102333.52
2018-12-31T12:04:23.741Z,102328.15
2018-12-31T12:06:51.440Z,102322.89
2018-12-31T12:09:18.139Z,102329.14
2018-12-31T12:11:46.819Z,102325.76
2018-12-31T12:14:14.598Z,102338.15
2018-12-31T12:16:41.654Z,102331.02
2018-12-31T12:19:09.200Z,102329.34
2018-12-31T12:21:36.948Z,102333.09
2018-12-31T12:24:06.196Z,102327.95
2018-12-31T12:26:33.929Z,102327.33
2018-12-31T12:29:16.321Z,102327.07
2018-12-31T12:31:43.117Z,102324.01
2018-12-31T12:34:09.802Z,102331.70
2018-12-31T12:36:37.062Z,102323.27
2018-12-31T12:39:06.978Z,102322.76
2018-12-31T12:41:34.322Z,102317.45
2018-12-31T12:44:02.091Z,102316.94
2018-12-31T12:46:28.766Z,102314.95
2018-12-31T12:48:55.551Z,102320.15
2018-12-31T12:51:23.344Z,102323.33
2018-12-31T12:53:50.020Z,102318.09
2018-12-31T12:56:17.257Z,102330.09
2018-12-31T12:58:44.678Z,102319.14
2018-12-31T13:01:12.181Z,102311.81
2018-12-31T13:03:39.533Z,102315.26
2018-12-31T13:06:06.333Z,102315.19
2018-12-31T13:08:33.268Z,102312.31
2018-12-31T13:11:01.155Z,102323.06
2018-12-31T13:13:29.206Z,102322.36
2018-12-31T13:15:57.395Z,102316.04
2018-12-31T13:18:24.437Z,102321.98
2018-12-31T13:20:51.753Z,102321.61
2018-12-31T13:23:19.044Z,102305.45
2018-12-31T13:25:46.050Z,102307.72
2018-12-31T13:28:13.325Z,102309.88
2018-12-31T13:30:40.900Z,102304.85
2018-12-31T13:33:11.849Z,102307.81
2018-12-31T13:35:38.991Z,102304.80
2018-12-31T13:38:10.823Z,102303.56
2018-12-31T13:40:37.833Z,102305.22
2018-12-31T13:43:04.510Z,102302.72
2018-12-31T13:45:31.455Z,102293.63
2018-12-31T13:47:59.135Z,102292.50
2018-12-31T13:50:26.556Z,102294.80
2018-12-31T13:52:53.743Z,102289.87
2018-12-31T13:55:21.935Z,102291.59
2018-12-31T13:57:48.716Z,102288.36
2018-12-31T14:00:15.826Z,102289.80
2018-12-31T14:02:43.020Z,102287.05
2018-12-31T14:05:09.813Z,102282.87
2018-12-31T14:07:37.397Z,102288.05
2018-12-31T14:10:04.983Z,102283.06
2018-12-31T14:12:32.964Z,102291.36
2018-12-31T14:14:59.658Z,102285.62
2018-12-31T14:17:26.309Z,102289.24
2018-12-31T14:19:53.477Z,102287.24
2018-12-31T14:22:20.759Z,102281.08
2018-12-31T14:24:50.887Z,102286.29
2018-12-31T14:27:18.428Z,102285.39
2018-12-31T14:29:55.552Z,102290.77
2018-12-31T14:32:22.635Z,102290.09
2018-12-31T14:34:49.497Z,102291.88
2018-12-31T14:37:16.578Z,102295.81
2018-12-31T14:39:43.811Z,102294.55
2018-12-31T14:42:11.268Z,102299.98
2018-12-31T14:44:38.169Z,102301.45
2018-12-31T14:47:04.822Z,102305.66
2018-12-31T14:49:32.318Z,102306.44
2018-12-31T14:51:59.442Z,102302.03
2018-12-31T14:54:26.576Z,102308.73
2018-12-31T14:56:53.922Z,102305.43
2018-12-31T14:59:21.646Z,102297.61
2018-12-31T15:01:48.429Z,102296.17
2018-12-31T15:04:15.083Z,102287.09
2018-12-31T15:06:43.262Z,102292.47
2018-12-31T15:09:10.613Z,102294.55
2018-12-31T15:11:37.477Z,102295.26
2018-12-31T15:14:05.461Z,102291.50
2018-12-31T15:16:32.249Z,102288.42
2018-12-31T15:19:00.046Z,102283.72
2018-12-31T15:21:27.016Z,102287.03
2018-12-31T15:23:53.701Z,102292.48
2018-12-31T15:26:22.524Z,102285.94
2018-12-31T15:28:49.983Z,102281.30
2018-12-31T15:31:16.894Z,102277.96
2018-12-31T15:33:46.042Z,102270.80
2018-12-31T15:36:13.673Z,102278.84
2018-12-31T15:38:40.586Z,102280.48
2018-12-31T15:41:08.205Z,102275.84
2018-12-31T15:43:35.432Z,102277.66
2018-12-31T15:46:02.592Z,102280.11
2018-12-31T15:48:31.792Z,102273.92
2018-12-31T15:50:59.055Z,102260.61
2018-12-31T15:53:26.130Z,102260.23
2018-12-31T15:55:52.930Z,102259.73
2018-12-31T15:58:20.689Z,102258.28
2018-12-31T16:00:48.388Z,102243.81
2018-12-31T16:03:15.777Z,102244.23
2018-12-31T16:05:42.539Z,102240.97
2018-12-31T16:08:09.559Z,102239.52
2018-12-31T16:10:36.961Z,102232.59
2018-12-31T16:13:04.226Z,102230.63
2018-12-31T16:15:31.317Z,102218.58
2018-12-31T16:17:58.234Z,102213.30
2018-12-31T16:20:25.628Z,102222.42
2018-12-31T16:22:52.998Z,102226.10
2018-12-31T16:25:21.188Z,102216.59
2018-12-31T16:27:48.712Z,102240.58
2018-12-31T16:30:16.928Z,102250.96
2018-12-31T16:32:43.609Z,102245.05
2018-12-31T16:35:10.827Z,102232.70
2018-12-31T16:37:37.548Z,102236.99
2018-12-31T16:40:04.999Z,102228.61
2018-12-31T16:42:32.771Z,102226.81
2018-12-31T16:44:59.463Z,102227.70
2018-12-31T16:47:27.457Z,102221.73
2018-12-31T16:49:55.242Z,102224.98
2018-12-31T16:52:22.784Z,102221.02
2018-12-31T16:54:50.555Z,102212.77
2018-12-31T16:57:18.000Z,102216.02
2018-12-31T16:59:45.040Z,102209.22
2018-12-31T17:02:11.733Z,102223.78
2018-12-31T17:04:39.234Z,102212.19
2018-12-31T17:07:05.918Z,102211.56
2018-12-31T17:09:33.236Z,102208.05
2018-12-31T17:12:01.215Z,102210.64
2018-12-31T17:14:28.153Z,102204.52
2018-12-31T17:16:55.403Z,102201.80
2018-12-31T17:19:22.189Z,102204.14
2018-12-31T17:21:49.165Z,102206.05
2018-12-31T17:24:16.646Z,102206.34
2018-12-31T17:26:43.530Z,102207.67
2018-12-31T17:29:10.996Z,102201.66
2018-12-31T17:31:38.104Z,102199.61
2018-12-31T17:34:06.122Z,102208.00
2018-12-31T17:36:33.418Z,102201.74
2018-12-31T17:39:00.565Z,102202.83
2018-12-31T17:41:27.246Z,102208.37
2018-12-31T17:43:54.774Z,102210.75
2018-12-31T17:46:22.438Z,102200.98
2018-12-31T17:48:49.418Z,102204.49
2018-12-31T17:51:16.610Z,102211.48
2018-12-31T17:53:43.270Z,102208.94
2018-12-31T17:56:09.947Z,102205.03
2018-12-31T17:58:36.864Z,102201.84
2018-12-31T18:01:04.270Z,102191.71
2018-12-31T18:03:31.553Z,102186.34
2018-12-31T18:05:58.812Z,102184.36
2018-12-31T18:08:26.265Z,102182.58
2018-12-31T18:10:53.316Z,102176.25
2018-12-31T18:13:21.500Z,102181.70
2018-12-31T18:15:49.424Z,102180.53
2018-12-31T18:18:16.805Z,102181.47
2018-12-31T18:20:44.057Z,102178.98
2018-12-31T18:23:11.696Z,102178.69
2018-12-31T18:25:41.177Z,102180.23
2018-12-31T18:28:09.101Z,102177.23
2018-12-31T18:30:36.211Z,102176.48
2018-12-31T18:33:03.013Z,102186.48
2018-12-31T18:35:30.540Z,102180.98
2018-12-31T18:37:57.229Z,102181.11
2018-12-31T18:40:24.332Z,102177.44
2018-12-31T18:42:51.268Z,102171.48
2018-12-31T18:45:18.336Z,102173.70
2018-12-31T18:47:44.995Z,102168.03
2018-12-31T18:50:11.686Z,102161.61
2018-12-31T18:52:38.760Z,102159.27
2018-12-31T18:55:06.308Z,102163.62
2018-12-31T18:57:33.560Z,102173.25
2018-12-31T19:00:01.005Z,102168.08
2018-12-31T19:02:28.055Z,102166.63
2018-12-31T19:04:54.747Z,102170.00
2018-12-31T19:07:21.860Z,102171.05
2018-12-31T19:09:48.803Z,102173.47
2018-12-31T19:12:16.358Z,102166.67
2018-12-31T19:14:44.264Z,102167.51
2018-12-31T19:17:11.766Z,102170.22
2018-12-31T19:19:38.546Z,102167.21
2018-12-31T19:22:05.344Z,102172.17
2018-12-31T19:24:32.818Z,102174.80
2018-12-31T19:26:59.729Z,102170.92
2018-12-31T19:29:26.957Z,102160.45
2018-12-31T19:31:54.606Z,102166.20
2018-12-31T19:34:21.274Z,102163.84
2018-12-31T19:36:48.966Z,102151.54
2018-12-31T19:39:16.133Z,102152.49
2018-12-31T19:41:43.564Z,102154.79
2018-12-31T19:44:10.873Z,102151.78
2018-12-31T19:46:37.842Z,102146.11
2018-12-31T19:49:04.522Z,102146.11
2018-12-31T19:51:32.171Z,102144.70
2018-12-31T19:54:01.081Z,102134.19
2018-12-31T19:56:28.258Z,102137.11
2018-12-31T19:58:55.892Z,102123.59
2018-12-31T20:01:23.087Z,102112.55
2018-12-31T20:03:50.594Z,102115.13
2018-12-31T20:06:18.152Z,102117.17
2018-12-31T20:08:45.297Z,102104.96
2018-12-31T20:11:13.316Z,102101.92
2018-12-31T20:13:41.425Z,102087.75
2018-12-31T20:16:08.111Z,102095.33
2018-12-31T20:18:34.798Z,102096.08
2018-12-31T20:21:01.989Z,102090.91
2018-12-31T20:23:28.987Z,102106.00
2018-12-31T20:25:56.248Z,102100.20
2018-12-31T20:28:23.338Z,102090.33
2018-12-31T20:30:51.087Z,102085.11
2018-12-31T20:33:18.635Z,102082.20
2018-12-31T20:35:45.577Z,102083.66
2018-12-31T20:38:14.005Z,102096.02
2018-12-31T20:40:40.762Z,102076.18
2018-12-31T20:43:08.153Z,102077.05
2018-12-31T20:45:35.603Z,102054.47
2018-12-31T20:48:02.280Z,102074.92
2018-12-31T20:50:29.919Z,102066.84
2018-12-31T20:52:57.561Z,102066.77
2018-12-31T20:55:24.461Z,102063.23
2018-12-31T20:57:51.689Z,102064.89
2018-12-31T21:00:20.405Z,102069.61
2018-12-31T21:02:47.910Z,102074.85
2018-12-31T21:05:16.101Z,102063.64
2018-12-31T21:07:43.860Z,102060.77
2018-12-31T21:10:11.111Z,102051.64
2018-12-31T21:12:40.252Z,102054.36
2018-12-31T21:15:07.194Z,102038.77
2018-12-31T21:17:33.868Z,102033.55
2018-12-31T21:20:01.017Z,102028.80
2018-12-31T21:22:27.732Z,102025.20
2018-12-31T21:24:54.912Z,102022.33
2018-12-31T21:27:22.682Z,102018.29
2018-12-31T21:29:49.354Z,102012.83
2018-12-31T21:32:16.469Z,102004.07
2018-12-31T21:34:43.292Z,102001.81
2018-12-31T21:37:11.063Z,101993.44
2018-12-31T21:39:38.841Z,101978.42
2018-12-31T21:42:05.966Z,101969.05
2018-12-31T21:44:32.641Z,101964.05
2018-12-31T21:47:00.604Z,101961.33
2018-12-31T21:49:27.276Z,101954.79
2018-12-31T21:51:54.440Z,101954.79
2018-12-31T21:54:21.107Z,101957.08
2018-12-31T21:59:30.576Z,101945.56
2018-12-31T22:01:57.517Z,101940.66
2018-12-31T22:04:24.325Z,101950.82
2018-12-31T22:06:51.678Z,101945.81
2018-12-31T22:09:18.968Z,101937.06
2018-12-31T22:11:46.324Z,101955.58
2018-12-31T22:14:14.007Z,101948.60
2018-12-31T22:16:40.790Z,101946.31
2018-12-31T22:19:08.593Z,101952.37
2018-12-31T22:21:36.044Z,101959.58
2018-12-31T22:24:03.540Z,101944.59
2018-12-31T22:26:30.873Z,101940.47
2018-12-31T22:28:58.431Z,101953.22
2018-12-31T22:31:25.554Z,101944.90
2018-12-31T22:33:52.989Z,101933.49
2018-12-31T22:36:19.901Z,101926.80
2018-12-31T22:38:47.815Z,101924.64
2018-12-31T22:41:14.839Z,101916.38
2018-12-31T22:43:41.622Z,101912.63
2018-12-31T22:46:08.653Z,101896.59
2018-12-31T22:48:36.096Z,101919.39
2018-12-31T22:51:03.593Z,101910.06
2018-12-31T22:53:31.185Z,101903.81
2018-12-31T22:55:58.111Z,101900.06
2018-12-31T22:58:24.822Z,101893.56
2018-12-31T23:00:52.385Z,101883.31
2018-12-31T23:03:19.517Z,101889.34
2018-12-31T23:05:46.750Z,101876.84
2018-12-31T23:08:14.192Z,101871.09
2018-12-31T23:10:41.246Z,101866.55
2018-12-31T23:13:09.244Z,101861.55
2018-12-31T23:15:36.318Z,101859.52
2018-12-31T23:18:03.101Z,101851.95
2018-12-31T23:20:30.508Z,101848.95
2018-12-31T23:22:58.669Z,101845.30
2018-12-31T23:25:25.569Z,101836.67
2018-12-31T23:27:53.482Z,101837.30
2018-12-31T23:30:20.797Z,101850.14
2018-12-31T23:32:48.550Z,101822.20
2018-12-31T23:35:16.341Z,101816.08
2018-12-31T23:37:44.491Z,101812.80
2018-12-31T23:40:12.542Z,101821.17
2018-12-31T23:42:39.906Z,101825.42
2018-12-31T23:45:08.512Z,101827.92
2018-12-31T23:47:35.861Z,101812.52
2018-12-31T23:50:03.420Z,101809.14
2018-12-31T23:52:31.030Z,101801.48
2018-12-31T23:54:58.273Z,101796.64
2018-12-31T23:57:24.948Z,101801.48
2018-12-31T23:59:51.654Z,101797.61
